Time;durP1;ratioP1;P1;durP2;ratioP2;P2;SDS_P1;SDS_P2;PMS_P1;PMS_P2;Temp;Humidity;BMP_temperature;BMP_pressure;BME280_temperature;BME280_humidity;BME280_pressure;Samples;Min_cycle;Max_cycle;Signal;HPM_P1;HPM_P2
2022/10/29 00:01:52;;;;;;;7.90;4.72;;;;;;;9.31;60.04;95960.38;5072815;28;20028;-73
2022/10/29 00:04:18;;;;;;;5.35;4.07;;;;;;;9.21;59.92;95942.88;5071487;28;20051;-72
2022/10/29 00:06:43;;;;;;;8.13;4.13;;;;;;;9.21;60.30;95961.03;5071490;28;20025;-72
2022/10/29 00:09:08;;;;;;;6.90;4.55;;;;;;;9.26;59.92;95959.81;5054554;28;20470;-72
2022/10/29 00:11:34;;;;;;;7.03;4.18;;;;;;;9.22;60.12;95952.31;5054684;28;20035;-72
2022/10/29 00:14:00;;;;;;;7.07;4.72;;;;;;;9.17;60.07;95948.25;5070055;28;20032;-72
2022/10/29 00:16:34;;;;;;;7.15;4.38;;;;;;;9.11;60.57;95958.97;5054676;28;20566;-72
2022/10/29 00:18:59;;;;;;;6.32;4.25;;;;;;;9.01;60.69;95938.88;5054494;28;20569;-72
2022/10/29 00:21:24;;;;;;;8.40;5.07;;;;;;;9.08;60.77;95950.53;5054328;28;20107;-72
2022/10/29 00:23:50;;;;;;;7.57;4.70;;;;;;;8.98;61.15;95954.59;5054496;28;20032;-72
2022/10/29 00:26:17;;;;;;;8.15;5.15;;;;;;;9.00;60.93;95952.72;5071013;28;20498;-72
2022/10/29 00:28:42;;;;;;;7.57;4.50;;;;;;;8.97;61.12;95947.72;5071011;28;20021;-72
2022/10/29 00:31:12;;;;;;;5.65;4.45;;;;;;;8.91;61.27;95943.75;5071066;28;20024;-72
2022/10/29 00:33:38;;;;;;;8.43;4.50;;;;;;;8.94;60.95;95940.97;5054395;28;20086;-72
2022/10/29 00:36:17;;;;;;;5.80;4.13;;;;;;;8.83;61.01;95933.84;5070818;28;20024;-72
2022/10/29 00:38:42;;;;;;;8.55;4.90;;;;;;;8.85;61.13;95933.75;5055966;28;20518;-72
2022/10/29 00:41:10;;;;;;;6.43;4.25;;;;;;;8.81;61.22;95932.25;5054038;28;20060;-72
2022/10/29 00:43:36;;;;;;;7.20;4.70;;;;;;;8.80;61.68;95934.00;5070596;28;20028;-72
2022/10/29 00:46:07;;;;;;;6.22;4.97;;;;;;;8.73;61.99;95935.28;5070692;28;20479;-73
2022/10/29 00:48:35;;;;;;;8.40;5.20;;;;;;;8.76;62.09;95921.34;5070573;28;20111;-72
2022/10/29 00:51:02;;;;;;;7.28;4.88;;;;;;;8.68;61.93;95911.41;5054106;28;20102;-72
2022/10/29 00:53:28;;;;;;;6.90;4.80;;;;;;;8.66;62.42;95918.41;5054080;28;20057;-72
2022/10/29 00:55:54;;;;;;;5.78;4.20;;;;;;;8.59;62.48;95911.94;5053934;28;20509;-72
2022/10/29 00:58:19;;;;;;;6.35;4.32;;;;;;;8.53;62.43;95920.06;5053971;28;20036;-72
2022/10/29 01:00:45;;;;;;;7.05;4.50;;;;;;;8.55;62.60;95923.38;5070438;28;20508;-72
2022/10/29 01:03:10;;;;;;;10.18;4.80;;;;;;;8.45;62.79;95921.31;5071445;28;20040;-72
2022/10/29 01:05:36;;;;;;;6.40;4.35;;;;;;;8.21;63.65;95927.84;5053733;28;20111;-72
2022/10/29 01:08:02;;;;;;;9.57;4.65;;;;;;;8.12;63.93;95931.78;5071626;28;20029;-72
2022/10/29 01:11:06;;;;;;;6.10;4.38;;;;;;;7.97;64.64;95930.06;5071490;28;20033;-72
2022/10/29 01:13:34;;;;;;;7.22;4.65;;;;;;;8.09;64.08;95919.03;5062788;28;20063;-72
2022/10/29 01:16:18;;;;;;;6.75;4.68;;;;;;;7.99;64.78;95923.03;5071338;28;20037;-72
2022/10/29 01:18:53;;;;;;;9.63;4.43;;;;;;;8.13;63.89;95915.31;5064571;28;20036;-72
2022/10/29 01:21:28;;;;;;;7.47;4.13;;;;;;;8.11;64.19;95917.19;5049100;28;20029;-71
2022/10/29 01:24:17;;;;;;;6.22;4.35;;;;;;;7.95;63.95;95899.09;5062923;28;20124;-69
2022/10/29 01:26:57;;;;;;;6.47;4.40;;;;;;;7.98;64.65;95898.91;5052729;28;20039;-71
2022/10/29 01:29:44;;;;;;;6.93;4.88;;;;;;;8.01;64.40;95893.56;5061080;28;20033;-71
2022/10/29 01:32:11;;;;;;;6.63;4.43;;;;;;;8.03;64.16;95886.56;5037403;28;20032;-75
2022/10/29 01:34:44;;;;;;;9.80;5.10;;;;;;;8.15;63.97;95894.56;5057193;28;20086;-72
2022/10/29 01:37:27;;;;;;;9.40;4.35;;;;;;;7.99;64.38;95887.63;5050767;28;20029;-72
2022/10/29 01:39:59;;;;;;;7.00;4.57;;;;;;;8.05;64.07;95889.91;5034507;28;20040;-73
2022/10/29 01:42:37;;;;;;;6.85;4.78;;;;;;;8.07;64.30;95893.22;5051183;28;20035;-72
2022/10/29 01:45:25;;;;;;;5.75;4.28;;;;;;;8.00;64.42;95889.31;5049798;28;20037;-72
2022/10/29 01:47:56;;;;;;;6.15;4.50;;;;;;;7.80;64.92;95897.31;5017270;28;20471;-73
2022/10/29 01:50:22;;;;;;;7.07;4.47;;;;;;;7.82;65.22;95892.91;5033273;28;20032;-72
2022/10/29 01:52:48;;;;;;;8.13;4.32;;;;;;;7.77;64.93;95879.38;5033222;28;20086;-72
2022/10/29 01:55:21;;;;;;;7.05;4.20;;;;;;;7.98;64.66;95883.38;5016482;28;20029;-72
2022/10/29 01:57:47;;;;;;;5.15;3.75;;;;;;;7.96;64.49;95877.44;5049654;28;20036;-72
2022/10/29 02:00:17;;;;;;;6.88;3.72;;;;;;;8.20;63.93;95893.38;5032865;28;20037;-72
2022/10/29 02:03:04;;;;;;;5.53;4.13;;;;;;;8.23;63.62;95894.97;5033113;28;20478;-72
2022/10/29 02:05:41;;;;;;;5.38;4.03;;;;;;;8.34;63.16;95896.94;5050770;28;20491;-73
2022/10/29 02:08:28;;;;;;;5.80;3.78;;;;;;;8.24;63.55;95897.44;5050801;28;20415;-72
2022/10/29 02:11:01;;;;;;;7.03;3.97;;;;;;;8.27;63.53;95886.94;5049389;28;20035;-72
2022/10/29 02:13:32;;;;;;;5.82;3.88;;;;;;;8.16;63.73;95899.66;5049656;28;20037;-73
2022/10/29 02:15:58;;;;;;;6.32;3.75;;;;;;;8.29;62.75;95897.19;5033360;28;20027;-72
2022/10/29 02:18:23;;;;;;;5.38;3.95;;;;;;;8.31;62.58;95886.75;5049606;28;20033;-72
2022/10/29 02:20:49;;;;;;;6.68;3.80;;;;;;;8.18;63.71;95889.19;5016317;28;20400;-72
2022/10/29 02:23:15;;;;;;;7.65;3.80;;;;;;;8.26;63.29;95874.06;5049436;28;20036;-72
2022/10/29 02:25:40;;;;;;;6.72;3.92;;;;;;;8.24;63.13;95870.72;5049345;28;20033;-72
2022/10/29 02:28:06;;;;;;;7.50;4.13;;;;;;;8.08;63.35;95860.44;5049396;28;20037;-72
2022/10/29 02:30:31;;;;;;;6.18;3.85;;;;;;;8.05;63.50;95856.25;5049385;28;20033;-73
2022/10/29 02:32:57;;;;;;;5.72;4.03;;;;;;;8.05;63.79;95861.44;5050837;28;20029;-73
2022/10/29 02:35:22;;;;;;;5.80;4.38;;;;;;;7.98;63.98;95857.50;5032659;28;20048;-72
2022/10/29 02:37:48;;;;;;;6.30;4.15;;;;;;;7.97;64.07;95858.44;5052070;28;20045;-72
2022/10/29 02:40:13;;;;;;;5.55;4.00;;;;;;;8.02;64.07;95871.97;5053091;28;20076;-72
2022/10/29 02:42:39;;;;;;;5.28;3.50;;;;;;;7.94;63.92;95868.97;5053146;28;20029;-72
2022/10/29 02:45:04;;;;;;;6.90;3.90;;;;;;;7.88;64.42;95869.28;5054490;28;20033;-72
2022/10/29 02:47:30;;;;;;;5.82;3.95;;;;;;;7.92;64.07;95862.19;5054437;28;20025;-72
2022/10/29 02:49:55;;;;;;;5.65;3.95;;;;;;;8.01;63.61;95870.28;5053096;28;20040;-72
2022/10/29 02:52:21;;;;;;;6.22;3.92;;;;;;;8.01;63.54;95869.44;5053063;28;20033;-72
2022/10/29 02:54:46;;;;;;;5.13;3.85;;;;;;;7.93;63.09;95863.84;5054122;28;20414;-72
2022/10/29 02:57:11;;;;;;;4.60;3.28;;;;;;;7.89;62.93;95860.63;5053028;28;20028;-72
2022/10/29 02:59:37;;;;;;;5.80;3.88;;;;;;;7.76;63.15;95864.78;5036216;28;20037;-72
2022/10/29 03:02:02;;;;;;;6.05;3.45;;;;;;;7.83;62.68;95866.13;5036333;28;20033;-72
2022/10/29 03:04:28;;;;;;;5.30;3.90;;;;;;;7.77;63.85;95866.44;5054095;28;20473;-72
2022/10/29 03:06:53;;;;;;;4.97;3.63;;;;;;;7.59;63.17;95865.72;5036249;28;20056;-72
2022/10/29 03:09:19;;;;;;;6.32;4.20;;;;;;;7.36;63.33;95864.38;5036163;28;20122;-72
2022/10/29 03:11:44;;;;;;;7.10;4.07;;;;;;;7.11;64.46;95873.41;5053981;28;20036;-72
2022/10/29 03:14:10;;;;;;;8.55;5.20;;;;;;;7.18;64.39;95878.25;5053819;28;20033;-73
2022/10/29 03:16:35;;;;;;;6.70;4.80;;;;;;;7.22;64.50;95874.63;5052527;28;20033;-72
2022/10/29 03:19:01;;;;;;;7.78;6.07;;;;;;;6.95;64.90;95867.38;5054004;28;20037;-72
2022/10/29 03:21:26;;;;;;;6.78;4.75;;;;;;;6.89;65.17;95852.19;5035645;28;20037;-72
2022/10/29 03:23:51;;;;;;;8.77;5.43;;;;;;;6.97;65.36;95864.72;5035925;28;20097;-72
2022/10/29 03:26:17;;;;;;;7.25;4.93;;;;;;;6.91;66.45;95869.28;5052787;28;20032;-72
2022/10/29 03:28:42;;;;;;;7.80;4.82;;;;;;;6.88;66.88;95866.00;5035780;28;20037;-72
2022/10/29 03:31:08;;;;;;;6.70;4.95;;;;;;;6.82;67.20;95853.41;5053476;28;20021;-72
2022/10/29 03:33:33;;;;;;;8.52;5.82;;;;;;;6.84;66.84;95859.34;5052084;28;20033;-72
2022/10/29 03:36:00;;;;;;;8.43;5.00;;;;;;;6.83;66.94;95855.94;5053546;28;20032;-72
2022/10/29 03:38:25;;;;;;;16.77;9.30;;;;;;;6.74;67.40;95837.47;5036035;28;20104;-72
2022/10/29 03:40:51;;;;;;;7.05;4.82;;;;;;;6.74;67.65;95858.16;5052118;28;20044;-72
2022/10/29 03:43:17;;;;;;;7.95;5.72;;;;;;;6.82;67.42;95851.66;5052403;28;20475;-72
2022/10/29 03:45:42;;;;;;;8.40;5.50;;;;;;;6.82;67.05;95849.09;5053632;28;20033;-72
2022/10/29 03:48:07;;;;;;;8.40;5.50;;;;;;;6.80;67.42;95844.91;5051995;28;20033;-72
2022/10/29 03:50:33;;;;;;;6.80;4.80;;;;;;;6.72;67.28;95840.16;5052102;28;20033;-72
2022/10/29 03:52:58;;;;;;;8.55;5.88;;;;;;;6.75;67.40;95849.50;5053663;28;20025;-72
2022/10/29 03:55:24;;;;;;;7.70;5.47;;;;;;;6.72;67.36;95846.16;5035464;28;20043;-72
2022/10/29 03:57:49;;;;;;;9.38;5.60;;;;;;;6.75;67.01;95845.16;5052018;28;20044;-72
2022/10/29 04:00:15;;;;;;;9.15;4.90;;;;;;;6.72;67.02;95840.16;5052877;28;20119;-72
2022/10/29 04:02:40;;;;;;;6.65;4.88;;;;;;;6.77;67.01;95853.69;5051815;28;20029;-72
2022/10/29 04:05:06;;;;;;;7.22;5.45;;;;;;;6.41;66.78;95815.06;5053010;28;20041;-72
2022/10/29 04:07:31;;;;;;;7.63;5.30;;;;;;;6.60;66.77;95853.69;5035044;28;20029;-72
2022/10/29 04:09:57;;;;;;;5.72;4.35;;;;;;;6.72;66.49;95861.66;5034825;28;20049;-72
2022/10/29 04:12:22;;;;;;;6.38;4.30;;;;;;;6.61;66.51;95856.19;5051525;28;20025;-72
2022/10/29 04:14:48;;;;;;;5.82;4.13;;;;;;;6.55;66.45;95861.69;5051870;28;20032;-72
2022/10/29 04:17:13;;;;;;;8.07;4.03;;;;;;;6.57;66.29;95872.75;5051781;28;20036;-72
2022/10/29 04:19:39;;;;;;;7.40;4.70;;;;;;;6.44;66.72;95871.69;5051502;28;20534;-72
2022/10/29 04:22:05;;;;;;;8.65;5.65;;;;;;;6.49;66.31;95874.88;5051559;28;20512;-72
2022/10/29 04:24:30;;;;;;;7.03;4.53;;;;;;;6.23;66.58;95842.63;5051793;28;20032;-72
2022/10/29 04:26:56;;;;;;;13.88;10.80;;;;;;;6.34;66.45;95876.47;5052758;28;20103;-72
2022/10/29 04:29:21;;;;;;;19.10;12.73;;;;;;;6.21;66.06;95858.19;5052430;28;20037;-72
2022/10/29 04:31:47;;;;;;;12.48;7.63;;;;;;;6.23;65.88;95878.75;5051535;28;20041;-72
2022/10/29 04:34:12;;;;;;;8.68;4.47;;;;;;;6.14;65.35;95884.34;5051121;28;20029;-72
2022/10/29 04:36:37;;;;;;;12.35;7.80;;;;;;;6.16;65.71;95880.78;5051143;28;20388;-72
2022/10/29 04:39:03;;;;;;;7.20;4.70;;;;;;;6.03;66.19;95877.13;5052436;28;20029;-72
2022/10/29 04:41:29;;;;;;;7.22;5.35;;;;;;;5.97;67.19;95890.31;5034536;28;20035;-72
2022/10/29 04:43:54;;;;;;;7.70;5.20;;;;;;;5.99;68.96;95891.06;5052714;28;20086;-72
2022/10/29 04:46:19;;;;;;;7.38;4.43;;;;;;;6.11;69.35;95890.50;5050923;28;20391;-72
2022/10/29 04:48:45;;;;;;;6.97;4.05;;;;;;;6.17;69.40;95881.63;5052313;28;20253;-72
2022/10/29 04:51:21;;;;;;;5.80;4.13;;;;;;;6.17;69.12;95874.72;5051441;28;20024;-72
2022/10/29 04:53:46;;;;;;;5.32;3.85;;;;;;;6.19;69.29;95883.22;5034540;28;20120;-72
2022/10/29 04:56:11;;;;;;;7.32;5.00;;;;;;;6.24;69.31;95885.56;5050858;28;20025;-72
2022/10/29 04:58:37;;;;;;;7.32;4.25;;;;;;;6.30;68.60;95863.81;5051859;28;20029;-72
2022/10/29 05:01:03;;;;;;;5.97;4.75;;;;;;;6.50;68.44;95881.72;5050079;28;20032;-72
2022/10/29 05:03:30;;;;;;;6.57;4.38;;;;;;;6.49;68.22;95874.88;5050956;28;20051;-72
2022/10/29 05:05:55;;;;;;;7.80;5.20;;;;;;;6.40;68.63;95877.91;5050738;28;20033;-73
2022/10/29 05:08:20;;;;;;;10.38;6.20;;;;;;;6.40;68.22;95885.66;5050445;28;20128;-72
2022/10/29 05:10:46;;;;;;;9.18;5.47;;;;;;;6.41;68.01;95883.00;5050704;28;20033;-72
2022/10/29 05:13:11;;;;;;;5.50;3.95;;;;;;;6.51;68.08;95887.72;5052099;28;20021;-72
2022/10/29 05:15:37;;;;;;;4.93;3.88;;;;;;;6.42;68.33;95873.50;5050410;28;20021;-72
2022/10/29 05:18:03;;;;;;;6.25;4.20;;;;;;;6.50;68.19;95881.72;5033903;28;20483;-72
2022/10/29 05:20:29;;;;;;;5.22;3.92;;;;;;;6.51;68.04;95867.88;5051865;28;20082;-72
2022/10/29 05:23:02;;;;;;;10.45;6.95;;;;;;;6.43;68.24;95875.19;5033985;28;20044;-72
2022/10/29 05:25:27;;;;;;;7.70;5.07;;;;;;;6.50;68.21;95881.72;5050371;28;20086;-72
2022/10/29 05:28:06;;;;;;;10.55;6.97;;;;;;;6.56;68.03;95880.56;5050354;28;20032;-72
2022/10/29 05:30:32;;;;;;;8.73;6.13;;;;;;;6.40;68.20;95870.16;5034331;28;20033;-72
2022/10/29 05:32:58;;;;;;;7.18;5.57;;;;;;;6.59;68.26;95885.59;5050532;28;20036;-72
2022/10/29 05:35:23;;;;;;;9.38;6.32;;;;;;;6.54;67.86;95875.47;5051684;28;20037;-72
2022/10/29 05:37:53;;;;;;;9.88;5.80;;;;;;;6.44;68.22;95885.44;5017175;28;20077;-72
2022/10/29 05:40:19;;;;;;;8.63;5.47;;;;;;;6.55;68.12;95894.41;5050062;28;20058;-72
2022/10/29 05:42:44;;;;;;;7.55;4.85;;;;;;;6.69;67.52;95881.63;5050393;28;20033;-72
2022/10/29 05:45:10;;;;;;;10.15;6.50;;;;;;;6.57;67.92;95892.56;5050105;28;20033;-73
2022/10/29 05:47:35;;;;;;;22.17;13.73;;;;;;;6.60;67.80;95892.41;5051450;28;20490;-72
2022/10/29 05:50:01;;;;;;;11.02;7.38;;;;;;;6.67;67.42;95894.63;5050113;28;20033;-72
2022/10/29 05:52:26;;;;;;;15.32;9.77;;;;;;;6.65;67.72;95903.34;5051631;28;20463;-72
2022/10/29 05:54:51;;;;;;;8.50;5.75;;;;;;;6.58;67.71;95904.59;5049996;28;20529;-72
2022/10/29 05:57:17;;;;;;;5.35;3.83;;;;;;;6.52;68.09;95902.28;5033232;28;20033;-72
2022/10/29 05:59:42;;;;;;;7.28;4.22;;;;;;;6.65;67.29;95901.59;5050959;28;20033;-73
2022/10/29 06:02:09;;;;;;;5.53;4.03;;;;;;;6.54;67.34;95910.78;5049404;28;20031;-72
2022/10/29 06:04:34;;;;;;;4.47;3.53;;;;;;;6.28;67.45;95894.84;5049836;28;20079;-73
2022/10/29 06:07:00;;;;;;;7.68;4.78;;;;;;;6.39;68.11;95913.22;5049645;28;20037;-72
2022/10/29 06:09:25;;;;;;;4.90;3.33;;;;;;;6.51;68.02;95914.34;5033141;28;20441;-72
2022/10/29 06:11:51;;;;;;;7.95;4.53;;;;;;;6.46;68.04;95921.47;5054055;28;20028;-72
2022/10/29 06:14:16;;;;;;;6.93;4.80;;;;;;;6.51;68.01;95919.53;5053794;28;20037;-72
2022/10/29 06:16:41;;;;;;;9.57;4.47;;;;;;;6.44;67.99;95919.00;5055061;28;20032;-72
2022/10/29 06:19:07;;;;;;;8.32;4.97;;;;;;;6.53;67.53;95927.19;5053560;28;20449;-72
2022/10/29 06:21:34;;;;;;;7.35;4.47;;;;;;;6.55;67.76;95928.81;5053745;28;20457;-72
2022/10/29 06:24:00;;;;;;;4.75;3.58;;;;;;;6.57;67.52;95926.13;5055238;28;20421;-72
2022/10/29 06:26:25;;;;;;;6.45;3.80;;;;;;;6.54;67.44;95914.19;5054736;28;20021;-72
2022/10/29 06:28:50;;;;;;;6.20;3.83;;;;;;;6.48;67.30;95912.75;5053488;28;20029;-72
2022/10/29 06:31:16;;;;;;;17.45;4.63;;;;;;;6.56;67.37;95914.97;5036675;28;20040;-72
2022/10/29 06:33:41;;;;;;;9.40;4.70;;;;;;;6.53;67.25;95922.88;5053505;28;20037;-72
2022/10/29 06:36:07;;;;;;;6.00;3.85;;;;;;;6.59;67.70;95912.22;5053264;28;20036;-72
2022/10/29 06:38:32;;;;;;;9.43;6.50;;;;;;;6.74;67.56;95913.19;5036761;28;20036;-72
2022/10/29 06:40:58;;;;;;;9.82;6.40;;;;;;;7.08;67.42;95920.09;5053386;28;20037;-72
2022/10/29 06:43:23;;;;;;;9.98;5.85;;;;;;;7.41;66.61;95903.75;5053433;28;20029;-73
2022/10/29 06:45:49;;;;;;;8.38;5.15;;;;;;;7.97;64.76;95909.38;5036734;28;20029;-72
2022/10/29 06:48:14;;;;;;;8.50;5.22;;;;;;;8.61;62.63;95903.16;5036948;28;20090;-72
2022/10/29 06:50:40;;;;;;;10.80;5.90;;;;;;;9.22;60.63;95911.69;5056487;28;20119;-72
2022/10/29 06:53:06;;;;;;;10.02;6.20;;;;;;;9.25;60.37;95895.06;5064778;28;20505;-72
2022/10/29 06:55:32;;;;;;;11.02;6.30;;;;;;;9.35;60.06;95891.00;5053314;28;20037;-72
2022/10/29 06:58:09;;;;;;;10.63;6.60;;;;;;;9.68;59.04;95901.09;5042670;28;20546;-72
2022/10/29 07:00:35;;;;;;;10.88;6.60;;;;;;;9.70;58.65;95891.44;5072159;28;20116;-72
2022/10/29 07:03:00;;;;;;;11.73;6.80;;;;;;;10.06;58.10;95903.03;5072892;28;20044;-72
2022/10/29 07:05:26;;;;;;;11.18;7.68;;;;;;;10.22;57.83;95908.06;5057784;28;20115;-72
2022/10/29 07:07:55;;;;;;;11.32;7.50;;;;;;;11.03;56.00;95913.19;5051306;28;20057;-73
2022/10/29 07:10:21;;;;;;;20.27;7.70;;;;;;;11.69;54.56;95900.00;5072399;28;20048;-72
2022/10/29 07:12:46;;;;;;;9.95;6.80;;;;;;;12.28;52.33;95911.41;5072843;28;20033;-73
2022/10/29 07:15:12;;;;;;;13.45;7.47;;;;;;;13.34;49.64;95906.19;5072436;28;20020;-72
2022/10/29 07:17:37;;;;;;;15.65;7.50;;;;;;;13.83;48.56;95912.84;5039012;28;20059;-72
2022/10/29 07:20:04;;;;;;;11.95;7.80;;;;;;;14.53;46.49;95905.56;5037977;28;20114;-72
2022/10/29 07:22:29;;;;;;;15.02;7.35;;;;;;;15.46;43.83;95889.13;5055583;28;20047;-75
2022/10/29 07:24:55;;;;;;;28.15;8.23;;;;;;;16.48;41.61;95889.81;5064639;28;20037;-72
2022/10/29 07:27:20;;;;;;;14.20;8.73;;;;;;;17.26;40.05;95913.41;5051540;28;20056;-72
2022/10/29 07:29:46;;;;;;;17.13;7.80;;;;;;;17.98;38.57;95903.22;5052218;28;20057;-70
2022/10/29 07:32:11;;;;;;;13.68;8.25;;;;;;;18.43;38.03;95918.19;5036485;28;20028;-72
2022/10/29 07:34:36;;;;;;;13.32;8.40;;;;;;;19.16;37.08;95910.94;5057150;28;20028;-72
2022/10/29 07:37:02;;;;;;;13.07;8.68;;;;;;;19.87;34.62;95898.56;5072116;28;20032;-73
2022/10/29 07:39:27;;;;;;;11.60;7.05;;;;;;;20.52;33.46;95908.50;5072415;28;20029;-72
2022/10/29 07:41:53;;;;;;;13.40;7.75;;;;;;;21.05;32.29;95909.91;5063894;28;20029;-73
2022/10/29 07:44:18;;;;;;;10.48;7.10;;;;;;;21.53;31.35;95918.78;5051274;28;20517;-72
2022/10/29 07:46:44;;;;;;;10.25;7.35;;;;;;;21.82;31.31;95906.84;5051723;28;20479;-74
2022/10/29 07:49:09;;;;;;;10.93;7.25;;;;;;;21.80;30.15;95899.06;5052829;28;20460;-73
2022/10/29 07:51:34;;;;;;;13.35;7.18;;;;;;;21.22;30.99;95904.59;5061378;28;20032;-73
2022/10/29 07:54:00;;;;;;;8.90;6.55;;;;;;;20.23;32.72;95898.38;5056565;28;20041;-73
2022/10/29 07:56:25;;;;;;;13.48;7.15;;;;;;;19.36;35.00;95895.81;5060835;28;20025;-73
2022/10/29 07:58:51;;;;;;;12.18;7.18;;;;;;;18.56;36.54;95900.22;5052856;28;20029;-74
2022/10/29 08:01:16;;;;;;;11.80;6.70;;;;;;;17.39;38.52;95887.66;5052381;28;20033;-71
2022/10/29 08:03:42;;;;;;;11.80;7.00;;;;;;;17.24;39.14;95894.31;5059204;28;20025;-73
2022/10/29 08:06:07;;;;;;;10.20;7.53;;;;;;;16.92;40.01;95900.75;5059002;28;20029;-71
2022/10/29 08:08:35;;;;;;;8.05;6.43;;;;;;;16.81;40.28;95894.81;5051907;28;20045;-71
2022/10/29 08:11:01;;;;;;;10.98;7.25;;;;;;;16.04;41.62;95897.19;5051721;28;20029;-71
2022/10/29 08:13:26;;;;;;;11.88;7.05;;;;;;;15.78;42.59;95894.22;5054742;28;20064;-71
2022/10/29 08:15:52;;;;;;;12.10;7.20;;;;;;;15.55;43.37;95898.81;5060395;28;20434;-74
2022/10/29 08:18:17;;;;;;;12.80;6.68;;;;;;;15.12;44.14;95891.94;5052710;28;20089;-71
2022/10/29 08:20:43;;;;;;;8.63;6.38;;;;;;;15.23;44.02;95885.00;5069173;28;20041;-72
2022/10/29 08:23:08;;;;;;;9.93;6.40;;;;;;;15.50;43.97;95885.25;5054610;28;20090;-73
2022/10/29 08:25:40;;;;;;;10.38;6.30;;;;;;;15.56;43.93;95884.72;5072499;28;20441;-74
2022/10/29 08:28:05;;;;;;;14.55;6.32;;;;;;;15.50;44.19;95885.25;5053940;28;20454;-72
2022/10/29 08:30:31;;;;;;;10.07;6.45;;;;;;;15.54;44.29;95876.16;5039350;28;20097;-73
2022/10/29 08:32:56;;;;;;;6.55;5.30;;;;;;;15.70;43.58;95870.47;5060229;28;20041;-74
2022/10/29 08:35:22;;;;;;;9.32;5.78;;;;;;;15.76;43.56;95872.56;5047320;28;20490;-74
2022/10/29 08:37:47;;;;;;;9.27;5.22;;;;;;;15.89;43.52;95864.47;5060279;28;20056;-74
2022/10/29 08:40:38;;;;;;;7.45;5.40;;;;;;;15.87;43.03;95866.41;5057620;28;20039;-74
2022/10/29 08:43:31;;;;;;;10.48;4.95;;;;;;;15.96;43.74;95870.81;5058796;28;20032;-71
2022/10/29 08:45:56;;;;;;;7.95;4.97;;;;;;;16.18;43.34;95866.31;5057265;28;20141;-73
2022/10/29 08:48:25;;;;;;;8.82;4.57;;;;;;;16.31;43.25;95862.47;5060254;28;20029;-74
2022/10/29 08:51:20;;;;;;;8.35;4.13;;;;;;;16.33;42.69;95866.75;5056387;28;20037;-74
2022/10/29 08:53:47;;;;;;;5.78;4.40;;;;;;;16.36;42.94;95864.69;5057547;28;20052;-73
2022/10/29 08:56:15;;;;;;;8.75;4.20;;;;;;;16.38;43.12;95856.66;5045105;28;20071;-73
2022/10/29 08:58:51;;;;;;;9.60;4.72;;;;;;;16.40;42.31;95852.94;5060710;28;20421;-72
2022/10/29 09:01:17;;;;;;;7.22;4.60;;;;;;;16.35;42.33;95842.03;5060045;28;20392;-71
2022/10/29 09:03:42;;;;;;;7.05;4.85;;;;;;;16.31;42.12;95845.91;5032109;28;20028;-74
2022/10/29 09:06:16;;;;;;;7.03;4.90;;;;;;;16.03;42.31;95814.28;5061381;28;20048;-73
2022/10/29 09:09:00;;;;;;;7.65;5.75;;;;;;;16.42;42.33;95843.16;5069704;28;20063;-74
2022/10/29 09:12:01;;;;;;;10.10;5.03;;;;;;;16.60;42.09;95850.31;5068450;28;20501;-73
2022/10/29 09:14:49;;;;;;;9.77;5.82;;;;;;;16.51;42.34;95834.44;5065874;28;20075;-73
2022/10/29 09:17:47;;;;;;;8.60;5.50;;;;;;;16.52;42.62;95843.19;5056554;28;20035;-73
2022/10/29 09:20:22;;;;;;;13.93;7.55;;;;;;;16.47;43.05;95842.75;5052212;28;20127;-73
2022/10/29 09:22:55;;;;;;;11.73;6.90;;;;;;;16.59;42.47;95840.81;5051162;28;20032;-73
2022/10/29 09:25:33;;;;;;;8.70;6.25;;;;;;;16.54;43.12;95839.41;5054861;28;20425;-71
2022/10/29 09:28:14;;;;;;;10.85;7.00;;;;;;;16.58;42.71;95839.16;5037854;28;20491;-74
2022/10/29 09:30:46;;;;;;;13.27;6.78;;;;;;;16.64;42.04;95834.19;5050209;28;20033;-72
2022/10/29 09:33:14;;;;;;;12.90;6.72;;;;;;;16.22;42.75;95821.34;5052319;28;20021;-72
2022/10/29 09:35:43;;;;;;;13.02;7.15;;;;;;;16.23;43.45;95830.03;5046151;28;20379;-72
2022/10/29 09:38:19;;;;;;;11.80;7.18;;;;;;;16.37;42.94;95832.25;5051702;28;20108;-72
2022/10/29 09:40:45;;;;;;;11.98;6.40;;;;;;;16.22;42.67;95823.16;5054767;28;20115;-71
2022/10/29 09:43:32;;;;;;;10.13;6.22;;;;;;;16.38;42.92;95815.56;5051453;28;20379;-73
2022/10/29 09:46:23;;;;;;;10.50;6.78;;;;;;;16.61;42.44;95815.28;5058625;28;20035;-72
2022/10/29 09:49:06;;;;;;;10.27;6.43;;;;;;;16.54;42.76;95818.44;5059309;28;20044;-72
2022/10/29 09:52:05;;;;;;;8.40;5.07;;;;;;;16.82;42.44;95809.88;5058127;28;20498;-72
2022/10/29 09:54:30;;;;;;;12.52;6.70;;;;;;;16.32;43.06;95813.47;5039510;28;20580;-72
2022/10/29 09:56:56;;;;;;;10.18;6.05;;;;;;;16.71;42.02;95805.56;5060849;28;20032;-72
2022/10/29 09:59:33;;;;;;;7.38;5.22;;;;;;;16.88;41.91;95790.94;5042040;28;20033;-71
2022/10/29 10:01:59;;;;;;;11.32;6.35;;;;;;;16.69;42.24;95807.53;5058668;28;20033;-72
2022/10/29 10:04:44;;;;;;;11.55;5.85;;;;;;;16.60;42.38;95796.06;5059086;28;20036;-72
2022/10/29 10:07:10;;;;;;;8.82;5.22;;;;;;;16.83;42.18;95778.25;5050547;28;20036;-73
2022/10/29 10:09:58;;;;;;;13.70;5.63;;;;;;;16.78;41.95;95779.66;5047831;28;20121;-73
2022/10/29 10:12:36;;;;;;;9.07;5.25;;;;;;;16.90;41.92;95770.63;5054437;28;20041;-72
2022/10/29 10:15:07;;;;;;;13.43;5.38;;;;;;;16.84;42.07;95766.78;5063178;28;20024;-71
2022/10/29 10:18:01;;;;;;;8.63;5.35;;;;;;;17.17;41.98;95765.44;5046197;28;20037;-72
2022/10/29 10:20:30;;;;;;;7.13;4.60;;;;;;;17.38;41.83;95759.97;5057492;28;20094;-69
2022/10/29 10:22:55;;;;;;;9.75;5.25;;;;;;;17.39;41.72;95745.03;5056640;28;20071;-72
2022/10/29 10:25:37;;;;;;;8.93;5.15;;;;;;;17.51;41.07;95749.09;5062959;28;20029;-73
2022/10/29 10:28:26;;;;;;;7.70;5.47;;;;;;;17.69;40.58;95741.25;5046668;28;20037;-73
2022/10/29 10:31:03;;;;;;;11.40;5.55;;;;;;;17.68;40.42;95739.59;5059681;28;20106;-72
2022/10/29 10:33:30;;;;;;;8.07;5.82;;;;;;;17.77;40.47;95741.31;5058207;28;20036;-71
2022/10/29 10:35:55;;;;;;;11.38;6.53;;;;;;;17.56;40.98;95725.03;5059186;28;20406;-72
2022/10/29 10:38:20;;;;;;;12.85;5.85;;;;;;;17.61;40.83;95722.78;5023074;28;20039;-72
2022/10/29 10:40:56;;;;;;;9.43;6.20;;;;;;;17.82;40.72;95715.44;5042136;28;20032;-71
2022/10/29 10:43:22;;;;;;;8.45;5.40;;;;;;;18.02;40.08;95717.94;5041698;28;20450;-72
2022/10/29 10:45:54;;;;;;;13.73;5.40;;;;;;;18.04;40.10;95721.25;5058615;28;20037;-71
2022/10/29 10:48:19;;;;;;;13.05;5.60;;;;;;;18.01;39.75;95716.28;5041771;28;20024;-72
2022/10/29 10:50:45;;;;;;;6.38;3.63;;;;;;;17.93;39.57;95703.88;5037295;28;20503;-72
2022/10/29 10:53:18;;;;;;;12.88;4.05;;;;;;;18.13;39.53;95701.91;5062404;28;20488;-72
2022/10/29 10:55:49;;;;;;;7.25;5.13;;;;;;;18.14;39.31;95700.97;5042764;28;20501;-72
2022/10/29 10:58:25;;;;;;;10.18;5.35;;;;;;;18.13;39.64;95701.91;5038890;28;20029;-72
2022/10/29 11:00:56;;;;;;;8.55;4.65;;;;;;;18.20;39.63;95692.47;5062432;28;20037;-72
2022/10/29 11:03:42;;;;;;;6.05;3.70;;;;;;;18.02;39.34;95694.28;5053513;28;20017;-72
2022/10/29 11:06:14;;;;;;;7.35;4.57;;;;;;;18.06;39.29;95690.38;5046593;28;20033;-71
2022/10/29 11:08:48;;;;;;;11.77;5.10;;;;;;;18.32;39.05;95690.41;5047082;28;20463;-73
2022/10/29 11:11:27;;;;;;;7.25;4.13;;;;;;;18.38;39.09;95681.06;5060793;28;20043;-70
2022/10/29 11:13:54;;;;;;;7.40;3.92;;;;;;;18.39;38.48;95677.47;5059003;28;20033;-71
2022/10/29 11:16:27;;;;;;;7.57;4.32;;;;;;;18.36;38.00;95683.03;5059869;28;20033;-73
2022/10/29 11:19:03;;;;;;;7.38;4.18;;;;;;;18.43;38.01;95677.00;5059379;28;20580;-71
2022/10/29 11:21:41;;;;;;;7.72;3.90;;;;;;;18.63;38.02;95668.91;5044856;28;20494;-72
2022/10/29 11:24:31;;;;;;;7.30;3.67;;;;;;;18.79;37.62;95661.13;5029183;28;20111;-72
2022/10/29 11:27:00;;;;;;;6.53;3.38;;;;;;;18.83;37.29;95656.38;5057038;28;20029;-71
2022/10/29 11:29:43;;;;;;;5.25;3.65;;;;;;;18.80;36.76;95652.22;5056479;28;20036;-72
2022/10/29 11:32:22;;;;;;;5.18;3.47;;;;;;;18.96;36.86;95641.78;5069313;28;20025;-77
2022/10/29 11:35:12;;;;;;;5.65;3.35;;;;;;;18.95;36.03;95640.13;5062135;28;20525;-72
2022/10/29 11:38:24;;;;;;;7.37;3.43;;;;;;;19.03;35.93;95636.72;5049230;28;20033;-71
2022/10/29 11:40:51;;;;;;;7.57;3.72;;;;;;;18.98;35.57;95641.63;5064429;28;20055;-70
2022/10/29 11:43:18;;;;;;;5.95;3.60;;;;;;;19.03;35.70;95631.47;5053838;28;20033;-71
2022/10/29 11:46:07;;;;;;;6.40;3.65;;;;;;;19.03;35.52;95626.19;5072016;28;20120;-71
2022/10/29 11:48:52;;;;;;;4.72;3.40;;;;;;;19.17;36.52;95625.56;5071479;28;20040;-71